Terminal Aerodrome Forecast
Issued by NWS Omaha/Valley, NE

Home | Current Version | Previous Version | Graphics & Text | Print | Product List | Glossary On
Versions: 1 2 3 4 5 6 7 8 9 10 11 12 13 14 15 16 17 18
000
FTUS43 KOAX 102014 AAA
TAFOFK
TAF AMD
KOFK 102014Z 1020/1118 13015G20KT P6SM SCT025 BKN040
      TEMPO 1020/1024 BKN025 OVC035
     FM110000 14010KT P6SM SCT015 OVC035
      TEMPO 1103/1107 4SM BR OVC015
     FM111200 26004KT P6SM OVC050
     FM111400 31008KT P6SM OVC030
     FM111600 32012G21KT P6SM OVC025=

USA.gov is the U.S. government's official web portal to all federal, state and local government web resources and services.